Time;durP1;ratioP1;P1;durP2;ratioP2;P2;SDS_P1;SDS_P2;PMS_P1;PMS_P2;Temp;Humidity;BMP_temperature;BMP_pressure;BME280_temperature;BME280_humidity;BME280_pressure;Samples;Min_cycle;Max_cycle;Signal;HPM_P1;HPM_P2
2022/08/01 00:01:13;;;;;;;7.75;3.60;;;18.40;99.90;;;;;;5045913;28;20068;-62
2022/08/01 00:03:39;;;;;;;7.40;3.70;;;18.40;99.90;;;;;;5044491;28;20063;-60
2022/08/01 00:06:05;;;;;;;5.72;3.58;;;18.40;99.90;;;;;;5047002;28;20059;-62
2022/08/01 00:08:31;;;;;;;8.68;3.45;;;18.30;99.90;;;;;;5039028;28;20045;-62
2022/08/01 00:10:56;;;;;;;4.97;3.60;;;18.40;99.90;;;;;;5025570;28;20109;-62
2022/08/01 00:13:22;;;;;;;7.03;3.75;;;18.40;99.90;;;;;;5031909;28;20044;-61
2022/08/01 00:15:48;;;;;;;6.35;3.35;;;18.40;99.90;;;;;;5044050;28;20593;-61
2022/08/01 00:18:14;;;;;;;6.85;3.30;;;18.40;99.90;;;;;;5024943;28;20548;-61
2022/08/01 00:20:39;;;;;;;5.65;2.90;;;18.40;99.90;;;;;;5042554;28;20103;-61
2022/08/01 00:23:05;;;;;;;6.93;3.38;;;18.40;99.90;;;;;;5040848;28;20048;-61
2022/08/01 00:25:31;;;;;;;4.28;3.20;;;18.40;99.90;;;;;;5025585;28;20053;-62
2022/08/01 00:27:57;;;;;;;8.90;3.28;;;18.30;99.90;;;;;;5030427;28;20098;-62
2022/08/01 00:30:23;;;;;;;7.03;3.53;;;18.30;99.90;;;;;;5041166;28;20045;-60
2022/08/01 00:32:48;;;;;;;6.88;3.95;;;18.30;99.90;;;;;;5029338;28;20475;-61
2022/08/01 00:35:14;;;;;;;6.20;3.85;;;18.30;99.90;;;;;;5027999;28;20048;-62
2022/08/01 00:37:40;;;;;;;5.57;3.95;;;18.30;99.90;;;;;;5046057;28;20044;-62
2022/08/01 00:40:07;;;;;;;8.75;4.70;;;18.30;99.90;;;;;;5046249;28;20041;-62
2022/08/01 00:42:33;;;;;;;8.57;4.88;;;18.30;99.90;;;;;;5044940;28;20388;-61
2022/08/01 00:44:59;;;;;;;7.80;4.65;;;18.30;99.90;;;;;;5041165;28;20055;-61
2022/08/01 00:47:25;;;;;;;7.43;4.53;;;18.30;99.90;;;;;;5042633;28;20048;-61
2022/08/01 00:49:50;;;;;;;6.65;4.35;;;18.30;99.90;;;;;;5044792;28;20045;-62
2022/08/01 00:52:16;;;;;;;6.78;3.95;;;18.20;99.90;;;;;;5029970;28;20055;-62
2022/08/01 00:54:43;;;;;;;8.57;3.33;;;18.20;99.90;;;;;;5046278;28;20093;-61
2022/08/01 00:57:09;;;;;;;7.53;3.20;;;18.20;99.90;;;;;;5048667;28;20816;-62
2022/08/01 00:59:36;;;;;;;5.90;2.78;;;18.20;99.90;;;;;;5050630;28;20051;-61
2022/08/01 01:02:02;;;;;;;6.70;3.33;;;18.20;99.90;;;;;;5051734;28;20088;-62
2022/08/01 01:04:28;;;;;;;6.18;2.97;;;18.20;99.90;;;;;;5043145;28;20612;-60
2022/08/01 01:07:21;;;;;;;5.60;2.80;;;18.20;99.90;;;;;;5051492;28;20502;-62
2022/08/01 01:10:00;;;;;;;10.95;3.15;;;18.10;99.90;;;;;;5048833;28;20554;-61
2022/08/01 01:12:57;;;;;;;7.45;3.00;;;18.10;99.90;;;;;;5050583;28;20557;-60
2022/08/01 01:15:47;;;;;;;4.07;2.63;;;18.10;99.90;;;;;;5033022;28;20048;-62
2022/08/01 01:18:21;;;;;;;8.60;2.67;;;18.10;99.90;;;;;;5044456;28;20096;-62
2022/08/01 01:21:03;;;;;;;4.63;2.45;;;18.00;99.90;;;;;;5047775;28;20069;-62
2022/08/01 01:23:29;;;;;;;5.05;2.47;;;18.00;99.90;;;;;;5047595;28;20123;-61
2022/08/01 01:26:10;;;;;;;6.18;2.10;;;17.90;99.90;;;;;;5044331;28;20413;-62
2022/08/01 01:29:13;;;;;;;5.18;2.00;;;18.00;99.90;;;;;;5013480;28;20440;-62
2022/08/01 01:31:47;;;;;;;10.43;2.80;;;17.90;99.90;;;;;;5049221;28;20044;-62
2022/08/01 01:34:16;;;;;;;7.47;2.35;;;17.90;99.90;;;;;;5027880;28;20561;-62
2022/08/01 01:36:44;;;;;;;13.02;2.80;;;17.90;99.90;;;;;;5047120;28;20048;-62
2022/08/01 01:39:13;;;;;;;8.13;2.60;;;17.80;99.90;;;;;;5030275;28;20084;-62
2022/08/01 01:41:42;;;;;;;6.90;2.78;;;17.80;99.90;;;;;;5018954;28;20168;-62
2022/08/01 01:44:10;;;;;;;7.03;2.33;;;17.80;99.90;;;;;;5048544;28;20056;-61
2022/08/01 01:46:37;;;;;;;7.45;2.20;;;17.80;99.90;;;;;;5032082;28;20048;-61
2022/08/01 01:49:04;;;;;;;8.13;2.20;;;17.80;99.90;;;;;;5034500;28;20060;-62
2022/08/01 01:51:31;;;;;;;4.97;2.10;;;17.70;99.90;;;;;;5047155;28;20135;-62
2022/08/01 01:53:58;;;;;;;7.82;2.10;;;17.70;99.90;;;;;;5027636;28;20044;-62
2022/08/01 01:56:26;;;;;;;7.05;1.92;;;17.70;99.90;;;;;;5055828;28;20111;-61
2022/08/01 01:58:55;;;;;;;5.57;2.08;;;17.70;99.90;;;;;;5044014;28;20036;-61
2022/08/01 02:01:25;;;;;;;7.38;2.10;;;17.50;99.90;;;;;;5045500;28;20043;-60
2022/08/01 02:03:53;;;;;;;13.70;1.90;;;17.60;99.90;;;;;;5051419;28;20103;-61
2022/08/01 02:06:21;;;;;;;6.63;1.80;;;17.60;99.90;;;;;;5051483;28;20044;-61
2022/08/01 02:08:48;;;;;;;4.60;1.83;;;17.60;99.90;;;;;;5047722;28;21360;-61
2022/08/01 02:11:20;;;;;;;7.45;1.77;;;17.60;99.90;;;;;;5051581;28;20048;-61
2022/08/01 02:13:47;;;;;;;;;;;17.60;99.90;;;;;;5051157;28;20048;-61
2022/08/01 02:16:16;;;;;;;5.57;1.65;;;17.60;99.90;;;;;;5031446;28;19947;-61
2022/08/01 02:18:42;;;;;;;9.05;2.60;;;17.50;99.90;;;;;;5049581;28;20407;-60
2022/08/01 02:21:11;;;;;;;8.23;2.20;;;17.60;99.90;;;;;;5050928;28;20049;-61
2022/08/01 02:23:39;;;;;;;10.77;2.58;;;17.60;99.90;;;;;;5036097;28;20055;-61
2022/08/01 02:26:14;;;;;;;9.73;2.95;;;17.60;99.90;;;;;;5051609;28;20043;-63
2022/08/01 02:29:02;;;;;;;18.92;3.22;;;17.60;99.90;;;;;;5048730;28;20048;-61
2022/08/01 02:31:32;;;;;;;18.98;3.60;;;17.60;99.90;;;;;;5051397;28;20101;-61
2022/08/01 02:34:03;;;;;;;13.48;3.83;;;17.50;99.90;;;;;;5032249;28;20048;-61
2022/08/01 02:36:32;;;;;;;19.45;4.05;;;17.50;99.90;;;;;;5052150;28;20041;-60
2022/08/01 02:39:05;;;;;;;16.92;3.95;;;17.50;99.90;;;;;;5049435;28;20097;-61
2022/08/01 02:41:35;;;;;;;16.02;4.45;;;17.50;99.90;;;;;;5052485;28;20135;-61
2022/08/01 02:44:04;;;;;;;13.88;3.42;;;17.50;99.90;;;;;;5047186;28;20558;-61
2022/08/01 02:46:38;;;;;;;9.07;3.20;;;17.50;99.90;;;;;;5050471;28;20056;-61
2022/08/01 02:49:07;;;;;;;11.68;3.15;;;17.40;99.90;;;;;;5049795;28;20049;-61
2022/08/01 02:51:35;;;;;;;10.65;3.33;;;17.40;99.90;;;;;;5043146;28;20106;-61
2022/08/01 02:54:03;;;;;;;14.35;3.53;;;17.40;99.90;;;;;;5046852;28;20040;-61
2022/08/01 02:56:37;;;;;;;13.20;3.70;;;17.40;99.90;;;;;;5032362;28;20076;-61
2022/08/01 02:59:09;;;;;;;13.68;3.28;;;17.40;99.90;;;;;;5047230;28;20045;-61
2022/08/01 03:01:35;;;;;;;13.75;3.47;;;17.30;99.90;;;;;;5041127;28;20044;-61
2022/08/01 03:04:05;;;;;;;10.13;3.10;;;17.30;99.90;;;;;;5029237;28;20041;-62
2022/08/01 03:06:33;;;;;;;8.35;2.88;;;17.30;99.90;;;;;;5034446;28;20059;-61
2022/08/01 03:09:01;;;;;;;13.50;3.28;;;17.30;99.90;;;;;;5048823;28;20130;-60
2022/08/01 03:11:28;;;;;;;11.32;3.58;;;17.30;99.90;;;;;;5048417;28;20555;-61
2022/08/01 03:13:55;;;;;;;11.88;3.22;;;17.30;99.90;;;;;;5014536;28;20044;-61
2022/08/01 03:16:23;;;;;;;11.90;3.28;;;17.20;99.90;;;;;;5050966;28;20045;-61
2022/08/01 03:18:52;;;;;;;13.95;3.30;;;17.20;99.90;;;;;;5050890;28;20053;-61
2022/08/01 03:21:21;;;;;;;9.07;3.35;;;17.20;99.90;;;;;;5044101;28;22852;-61
2022/08/01 03:23:49;;;;;;;8.07;3.47;;;17.20;99.90;;;;;;5048547;28;20063;-61
2022/08/01 03:26:16;;;;;;;9.70;2.90;;;17.10;99.90;;;;;;5050418;28;20444;-61
2022/08/01 03:28:44;;;;;;;8.50;3.33;;;17.10;99.90;;;;;;5047216;28;20049;-61
2022/08/01 03:31:12;;;;;;;7.88;3.33;;;17.10;99.90;;;;;;5045450;28;20107;-61
2022/08/01 03:33:38;;;;;;;8.15;2.97;;;17.10;99.90;;;;;;5040144;28;20040;-61
2022/08/01 03:36:08;;;;;;;11.13;3.78;;;17.10;99.90;;;;;;5042795;28;20057;-61
2022/08/01 03:38:37;;;;;;;5.55;2.63;;;17.10;99.90;;;;;;5029556;28;20139;-60
2022/08/01 03:41:11;;;;;;;13.20;3.40;;;17.10;99.90;;;;;;5050408;28;20051;-61
2022/08/01 03:43:42;;;;;;;14.50;3.50;;;17.10;99.90;;;;;;5025098;28;20127;-61
2022/08/01 03:46:16;;;;;;;16.63;3.40;;;17.00;99.90;;;;;;5048247;28;20060;-61
2022/08/01 03:48:46;;;;;;;13.65;3.20;;;17.00;99.90;;;;;;5045237;28;20076;-62
2022/08/01 03:51:13;;;;;;;10.68;3.25;;;17.00;99.90;;;;;;5031816;28;20517;-62
2022/08/01 03:53:42;;;;;;;12.07;3.30;;;17.00;99.90;;;;;;5022863;28;20803;-61
2022/08/01 03:56:09;;;;;;;11.23;3.42;;;17.00;99.90;;;;;;5050859;28;20063;-60
2022/08/01 03:58:38;;;;;;;11.95;3.22;;;17.00;99.90;;;;;;5030863;28;20060;-61
2022/08/01 04:01:06;;;;;;;12.98;3.00;;;17.00;99.90;;;;;;5045254;28;20147;-61
2022/08/01 04:03:33;;;;;;;8.55;3.15;;;17.00;99.90;;;;;;5023048;28;20037;-61
2022/08/01 04:06:02;;;;;;;16.27;4.13;;;17.00;99.90;;;;;;5052819;28;20052;-61
2022/08/01 04:08:35;;;;;;;18.33;3.55;;;17.00;99.90;;;;;;5041294;28;20166;-61
2022/08/01 04:11:01;;;;;;;12.43;2.85;;;17.00;99.90;;;;;;5048724;28;20074;-61
2022/08/01 04:13:27;;;;;;;8.70;3.00;;;17.00;99.90;;;;;;5028832;28;20478;-61
2022/08/01 04:15:53;;;;;;;8.65;3.08;;;17.00;99.90;;;;;;5029097;28;20098;-62
2022/08/01 04:18:18;;;;;;;11.60;3.13;;;17.00;99.90;;;;;;5012404;28;20443;-62
2022/08/01 04:20:46;;;;;;;10.80;3.15;;;17.00;99.90;;;;;;5048589;28;20043;-61
2022/08/01 04:23:16;;;;;;;12.13;3.47;;;17.00;99.90;;;;;;5049179;28;20044;-61
2022/08/01 04:25:43;;;;;;;11.35;3.40;;;17.00;99.90;;;;;;5031756;28;20098;-62
2022/08/01 04:28:16;;;;;;;11.75;3.38;;;17.00;99.90;;;;;;5042687;28;20041;-61
2022/08/01 04:30:44;;;;;;;13.38;2.95;;;17.00;99.90;;;;;;5030270;28;20062;-61
2022/08/01 04:33:13;;;;;;;16.85;3.30;;;17.00;99.90;;;;;;5048314;28;20051;-60
2022/08/01 04:35:45;;;;;;;19.05;3.67;;;17.10;99.90;;;;;;5048935;28;20040;-61
2022/08/01 04:38:16;;;;;;;11.23;3.63;;;17.10;99.90;;;;;;5045222;28;20774;-61
2022/08/01 04:40:45;;;;;;;15.97;3.33;;;17.10;99.90;;;;;;5029180;28;20071;-62
2022/08/01 04:43:11;;;;;;;12.93;3.30;;;17.10;99.90;;;;;;5048788;28;20419;-61
2022/08/01 04:45:39;;;;;;;17.05;3.40;;;17.00;99.90;;;;;;5051262;28;20064;-61
2022/08/01 04:48:09;;;;;;;16.10;3.55;;;17.00;99.90;;;;;;5049310;28;20052;-61
2022/08/01 04:50:36;;;;;;;17.77;4.00;;;17.00;99.90;;;;;;5046353;28;20040;-61
2022/08/01 04:53:03;;;;;;;16.88;3.45;;;17.00;99.90;;;;;;5047850;28;20123;-61
2022/08/01 04:55:31;;;;;;;16.42;3.70;;;17.00;99.90;;;;;;5030053;28;20502;-60
2022/08/01 04:57:57;;;;;;;14.73;3.40;;;17.00;99.90;;;;;;5045461;28;20612;-61
2022/08/01 05:00:22;;;;;;;17.05;4.10;;;17.00;99.90;;;;;;5036440;28;20047;-61
2022/08/01 05:02:48;;;;;;;21.70;3.60;;;17.00;99.90;;;;;;5040286;28;20037;-61
2022/08/01 05:05:14;;;;;;;20.27;3.42;;;16.90;99.90;;;;;;5030261;28;20402;-60
2022/08/01 05:07:40;;;;;;;20.02;3.78;;;16.90;99.90;;;;;;5039892;28;20194;-61
2022/08/01 05:10:06;;;;;;;27.88;4.55;;;16.90;99.90;;;;;;5042414;28;20088;-61
2022/08/01 05:12:32;;;;;;;24.33;4.18;;;16.90;99.90;;;;;;5041476;28;20072;-61
2022/08/01 05:14:59;;;;;;;20.05;3.97;;;16.90;99.90;;;;;;5041083;28;20711;-61
2022/08/01 05:17:25;;;;;;;18.35;3.53;;;16.90;99.90;;;;;;5044556;28;20083;-62
2022/08/01 05:19:51;;;;;;;16.30;3.30;;;16.90;99.90;;;;;;5042787;28;20235;-61
2022/08/01 05:22:16;;;;;;;18.40;3.53;;;16.90;99.90;;;;;;5045260;28;20044;-61
2022/08/01 05:24:42;;;;;;;17.60;3.30;;;16.90;99.90;;;;;;5038322;28;20047;-62
2022/08/01 05:27:09;;;;;;;20.15;3.65;;;16.90;99.90;;;;;;5040952;28;20503;-61
2022/08/01 05:29:35;;;;;;;22.58;4.10;;;16.90;99.90;;;;;;5025185;28;20056;-61
2022/08/01 05:32:01;;;;;;;16.67;3.80;;;16.80;99.90;;;;;;5038215;28;20732;-62
2022/08/01 05:34:27;;;;;;;19.10;3.83;;;16.90;99.90;;;;;;5025542;28;20044;-62
2022/08/01 05:36:53;;;;;;;20.55;3.85;;;16.80;99.90;;;;;;5045918;28;20043;-62
2022/08/01 05:39:19;;;;;;;20.17;3.50;;;16.80;99.90;;;;;;5052284;28;20053;-62
2022/08/01 05:41:45;;;;;;;16.35;3.85;;;16.80;99.90;;;;;;5014950;28;20106;-62
2022/08/01 05:44:11;;;;;;;20.92;3.50;;;16.80;99.90;;;;;;5018546;28;20525;-62
2022/08/01 05:46:37;;;;;;;24.27;4.15;;;16.80;99.90;;;;;;5048557;28;20072;-61
2022/08/01 05:49:04;;;;;;;20.88;3.92;;;16.80;99.90;;;;;;5049392;28;20107;-62
2022/08/01 05:51:30;;;;;;;18.52;3.67;;;16.90;99.90;;;;;;5053321;28;20098;-62
2022/08/01 05:53:57;;;;;;;17.27;3.83;;;16.90;99.90;;;;;;5050036;28;20055;-62
2022/08/01 05:56:23;;;;;;;15.43;3.67;;;16.90;99.90;;;;;;5051267;28;20041;-62
2022/08/01 05:58:52;;;;;;;15.57;3.47;;;16.90;99.90;;;;;;5051483;28;20052;-62
2022/08/01 06:01:19;;;;;;;17.23;3.67;;;16.90;99.90;;;;;;5045604;28;20044;-62
2022/08/01 06:03:44;;;;;;;19.77;3.17;;;16.80;99.90;;;;;;5037055;28;20068;-61
2022/08/01 06:06:11;;;;;;;16.95;3.70;;;16.90;99.90;;;;;;5027978;28;20384;-62
2022/08/01 06:08:36;;;;;;;16.92;3.25;;;16.80;99.90;;;;;;5048763;28;20135;-62
2022/08/01 06:11:02;;;;;;;16.95;3.88;;;16.80;99.90;;;;;;5028945;28;20132;-62
2022/08/01 06:13:28;;;;;;;17.25;3.65;;;16.80;99.90;;;;;;5028967;28;20037;-59
2022/08/01 06:15:54;;;;;;;22.83;4.55;;;16.80;99.90;;;;;;5048020;28;20051;-59
2022/08/01 06:18:20;;;;;;;21.73;3.63;;;16.80;99.90;;;;;;5056346;28;20689;-59
2022/08/01 06:20:46;;;;;;;14.13;3.70;;;16.80;99.90;;;;;;5054076;28;20048;-58
2022/08/01 06:23:11;;;;;;;17.38;3.45;;;16.80;99.90;;;;;;5052437;28;20055;-59
2022/08/01 06:25:37;;;;;;;15.02;3.45;;;16.80;99.90;;;;;;5053211;28;20048;-59
2022/08/01 06:28:03;;;;;;;13.48;2.97;;;16.80;99.90;;;;;;5021259;28;20048;-58
2022/08/01 06:30:29;;;;;;;19.08;3.55;;;16.80;99.90;;;;;;5054653;28;20049;-59
2022/08/01 06:32:58;;;;;;;15.27;3.30;;;16.90;99.90;;;;;;5038185;28;20514;-58
2022/08/01 06:35:24;;;;;;;16.70;3.08;;;16.90;99.90;;;;;;5054116;28;20047;-59
2022/08/01 06:37:50;;;;;;;17.05;3.53;;;17.00;99.90;;;;;;5020321;28;20048;-59
2022/08/01 06:40:15;;;;;;;18.60;3.25;;;17.00;99.90;;;;;;5052755;28;20048;-59
2022/08/01 06:42:41;;;;;;;21.15;3.92;;;17.00;99.90;;;;;;5055604;28;20040;-59
2022/08/01 06:45:10;;;;;;;17.55;3.00;;;17.00;99.90;;;;;;5052785;28;20058;-57
2022/08/01 06:47:36;;;;;;;18.45;3.05;;;17.00;99.90;;;;;;5054226;28;20045;-59
2022/08/01 06:50:03;;;;;;;13.93;3.03;;;17.10;99.90;;;;;;5054834;28;20045;-60
2022/08/01 06:52:29;;;;;;;15.93;3.42;;;17.10;99.90;;;;;;5011327;28;20478;-59
2022/08/01 06:54:55;;;;;;;18.52;2.88;;;17.10;99.90;;;;;;5052035;28;20048;-58
2022/08/01 06:57:21;;;;;;;13.30;2.88;;;17.20;99.90;;;;;;5053283;28;20060;-59
2022/08/01 06:59:46;;;;;;;19.65;3.00;;;17.20;99.90;;;;;;5052967;28;20045;-59
2022/08/01 07:02:12;;;;;;;16.73;3.20;;;17.20;99.90;;;;;;5052579;28;20097;-59
2022/08/01 07:04:38;;;;;;;15.10;2.60;;;17.20;99.90;;;;;;5051970;28;20044;-58
2022/08/01 07:07:04;;;;;;;17.98;3.08;;;17.20;99.90;;;;;;5053020;28;20044;-59
2022/08/01 07:09:30;;;;;;;16.58;2.97;;;17.30;99.90;;;;;;5042994;28;20543;-59
2022/08/01 07:11:56;;;;;;;19.40;3.33;;;17.30;99.90;;;;;;5054403;28;20163;-57
2022/08/01 07:14:23;;;;;;;15.02;2.80;;;17.40;99.90;;;;;;5050661;28;20045;-59
2022/08/01 07:16:50;;;;;;;15.63;2.88;;;17.40;99.90;;;;;;5052047;28;20241;-59
2022/08/01 07:19:16;;;;;;;18.85;3.00;;;17.40;99.90;;;;;;5032706;28;20299;-59
2022/08/01 07:21:42;;;;;;;14.52;2.60;;;17.50;99.90;;;;;;5037571;28;20490;-59
2022/08/01 07:24:12;;;;;;;15.50;3.03;;;17.50;99.90;;;;;;5050190;28;20043;-59
2022/08/01 07:26:38;;;;;;;12.75;3.17;;;17.60;99.90;;;;;;5052749;28;20049;-58
2022/08/01 07:29:04;;;;;;;16.92;3.00;;;17.60;99.90;;;;;;5054241;28;20036;-58
2022/08/01 07:31:30;;;;;;;13.80;2.80;;;17.60;99.90;;;;;;5053003;28;20482;-59
2022/08/01 07:33:56;;;;;;;23.23;2.75;;;17.80;99.90;;;;;;5053891;28;20865;-59
2022/08/01 07:36:22;;;;;;;14.93;2.58;;;17.90;99.90;;;;;;5052338;28;20078;-59
2022/08/01 07:38:48;;;;;;;18.73;3.08;;;18.00;99.90;;;;;;5050245;28;20044;-59
2022/08/01 07:41:14;;;;;;;13.68;3.03;;;18.00;99.90;;;;;;5054043;28;20565;-58
2022/08/01 07:43:40;;;;;;;11.13;2.17;;;18.00;99.90;;;;;;5051350;28;20143;-60
2022/08/01 07:46:06;;;;;;;14.05;2.42;;;18.00;99.90;;;;;;5049177;28;20140;-59
2022/08/01 07:48:33;;;;;;;17.15;3.28;;;18.00;99.90;;;;;;5035633;28;20124;-58
2022/08/01 07:50:58;;;;;;;12.80;2.55;;;18.10;99.90;;;;;;5052875;28;20071;-57
2022/08/01 07:53:24;;;;;;;11.05;2.78;;;18.10;99.90;;;;;;5050140;28;20087;-59
2022/08/01 07:55:50;;;;;;;17.20;2.55;;;18.10;99.90;;;;;;5051119;28;20041;-58
2022/08/01 07:58:16;;;;;;;8.85;1.92;;;18.20;99.90;;;;;;5051665;28;20063;-58
2022/08/01 08:00:42;;;;;;;14.27;2.30;;;18.20;99.90;;;;;;5050990;28;20044;-57
2022/08/01 08:03:08;;;;;;;10.02;2.22;;;18.40;99.90;;;;;;5051420;28;20055;-57
2022/08/01 08:05:35;;;;;;;17.52;3.20;;;18.50;99.90;;;;;;5050703;28;20044;-58
2022/08/01 08:08:05;;;;;;;19.65;3.22;;;18.60;99.90;;;;;;5051235;28;20045;-59
2022/08/01 08:10:31;;;;;;;10.82;2.22;;;18.80;99.90;;;;;;5052155;28;20127;-59
2022/08/01 08:12:57;;;;;;;13.40;2.25;;;18.80;99.90;;;;;;5051666;28;20045;-58
2022/08/01 08:15:22;;;;;;;14.90;3.15;;;18.90;99.90;;;;;;5053213;28;20056;-59
2022/08/01 08:17:48;;;;;;;10.65;2.45;;;18.90;99.90;;;;;;5034756;28;20511;-58
2022/08/01 08:20:15;;;;;;;11.20;2.10;;;18.90;99.90;;;;;;5051856;28;20040;-59
2022/08/01 08:22:41;;;;;;;10.82;2.30;;;18.80;99.90;;;;;;5035364;28;20123;-59
2022/08/01 08:25:08;;;;;;;16.45;2.63;;;18.70;99.90;;;;;;5053338;28;20045;-59
2022/08/01 08:27:34;;;;;;;14.73;2.67;;;18.70;99.90;;;;;;5056771;28;20032;-58
2022/08/01 08:30:00;;;;;;;14.57;1.95;;;18.70;99.90;;;;;;5051668;28;20052;-59
2022/08/01 08:32:26;;;;;;;13.02;2.20;;;18.80;99.90;;;;;;5053685;28;20139;-59
2022/08/01 08:34:51;;;;;;;14.02;2.35;;;18.80;99.90;;;;;;5052855;28;20048;-58
2022/08/01 08:37:17;;;;;;;10.85;2.00;;;18.90;99.90;;;;;;5050605;28;20047;-58
2022/08/01 08:39:43;;;;;;;10.95;2.30;;;19.20;99.90;;;;;;5035379;28;20127;-58
2022/08/01 08:42:11;;;;;;;10.38;2.03;;;19.30;99.90;;;;;;5051117;28;20494;-59
2022/08/01 08:44:38;;;;;;;11.10;2.15;;;19.40;99.90;;;;;;5050137;28;20056;-57
2022/08/01 08:47:05;;;;;;;15.30;2.25;;;19.50;99.90;;;;;;5052816;28;20048;-58
2022/08/01 08:49:32;;;;;;;7.05;1.90;;;19.60;99.90;;;;;;5048354;28;20040;-59
2022/08/01 08:52:01;;;;;;;13.15;2.33;;;19.70;99.90;;;;;;5047851;28;20037;-59
2022/08/01 08:54:29;;;;;;;11.35;2.47;;;19.70;99.90;;;;;;5051950;28;20048;-59
2022/08/01 08:56:55;;;;;;;8.82;1.88;;;19.70;99.90;;;;;;5051189;28;20113;-59
2022/08/01 08:59:24;;;;;;;13.20;1.70;;;19.60;99.90;;;;;;5047416;28;20052;-58
2022/08/01 09:01:50;;;;;;;10.88;2.20;;;19.70;99.90;;;;;;5050367;28;20436;-57
2022/08/01 09:04:16;;;;;;;16.85;2.67;;;19.70;99.70;;;;;;5050166;28;20091;-59
2022/08/01 09:06:42;;;;;;;10.23;2.30;;;19.80;99.50;;;;;;5052908;28;20080;-58
2022/08/01 09:09:09;;;;;;;14.32;2.63;;;19.90;99.50;;;;;;5051587;28;20069;-57
2022/08/01 09:11:36;;;;;;;9.25;1.73;;;20.00;98.70;;;;;;5048681;28;20045;-58
2022/08/01 09:14:12;;;;;;;13.07;2.20;;;20.20;99.00;;;;;;5053190;28;20041;-59
2022/08/01 09:16:44;;;;;;;10.10;2.13;;;20.30;98.90;;;;;;5054486;28;20050;-58
2022/08/01 09:19:20;;;;;;;8.98;1.95;;;20.30;98.80;;;;;;5054681;28;20387;-59
2022/08/01 09:22:00;;;;;;;10.70;1.70;;;20.30;98.90;;;;;;5038420;28;20465;-58
2022/08/01 09:24:27;;;;;;;12.80;2.13;;;20.40;98.10;;;;;;5046860;28;20041;-58
2022/08/01 09:26:54;;;;;;;11.05;1.80;;;20.30;98.10;;;;;;5053416;28;20055;-58
2022/08/01 09:29:26;;;;;;;15.25;1.90;;;20.30;97.70;;;;;;5053606;28;20160;-58
2022/08/01 09:31:52;;;;;;;11.25;2.17;;;20.30;97.50;;;;;;5054630;28;20040;-59
2022/08/01 09:34:26;;;;;;;13.45;1.92;;;20.40;97.20;;;;;;5050939;28;20036;-58
2022/08/01 09:36:55;;;;;;;14.23;1.65;;;20.50;96.40;;;;;;5054328;28;20055;-58
2022/08/01 09:39:31;;;;;;;8.82;1.67;;;20.50;95.90;;;;;;5050626;28;20045;-59
2022/08/01 09:42:17;;;;;;;17.00;2.28;;;20.50;95.90;;;;;;5053074;28;20037;-57
2022/08/01 09:44:44;;;;;;;11.43;1.90;;;20.60;95.60;;;;;;5052838;28;20625;-58
2022/08/01 09:47:11;;;;;;;14.00;2.17;;;20.60;95.30;;;;;;5056408;28;20040;-59
2022/08/01 09:49:39;;;;;;;8.00;1.92;;;20.60;94.70;;;;;;5050709;28;20040;-59
2022/08/01 09:52:15;;;;;;;7.13;1.52;;;20.60;94.60;;;;;;5055326;28;20040;-57
2022/08/01 09:54:42;;;;;;;10.20;1.67;;;20.80;95.00;;;;;;5055958;28;20068;-58
2022/08/01 09:57:16;;;;;;;8.65;2.00;;;20.90;94.60;;;;;;5052280;28;20486;-58
2022/08/01 09:59:48;;;;;;;8.20;1.63;;;21.00;94.40;;;;;;5053449;28;20047;-59
2022/08/01 10:02:34;;;;;;;15.82;2.15;;;20.80;93.90;;;;;;5054658;28;20110;-59
2022/08/01 10:05:01;;;;;;;10.07;1.60;;;20.70;93.80;;;;;;5051618;28;20037;-58
2022/08/01 10:07:27;;;;;;;8.98;1.63;;;20.80;93.60;;;;;;5053215;28;20139;-59
2022/08/01 10:09:53;;;;;;;13.68;2.85;;;20.90;94.00;;;;;;5055302;28;20155;-58
2022/08/01 10:12:21;;;;;;;8.38;2.00;;;21.00;93.90;;;;;;5051988;28;20060;-59
2022/08/01 10:14:55;;;;;;;10.45;1.70;;;21.00;93.80;;;;;;5056715;28;20040;-58
2022/08/01 10:17:24;;;;;;;12.32;2.40;;;21.00;93.40;;;;;;5046509;28;20114;-57
2022/08/01 10:19:54;;;;;;;13.73;1.98;;;21.10;92.60;;;;;;5043814;28;20037;-59
2022/08/01 10:22:24;;;;;;;8.40;1.80;;;21.10;92.40;;;;;;5051713;28;20044;-59
2022/08/01 10:24:54;;;;;;;10.07;1.95;;;21.20;92.90;;;;;;5054653;28;20597;-59
2022/08/01 10:27:21;;;;;;;12.02;1.88;;;21.40;92.40;;;;;;5054002;28;20460;-58
2022/08/01 10:29:51;;;;;;;9.18;1.77;;;21.60;91.90;;;;;;5011173;28;20555;-59
2022/08/01 10:32:18;;;;;;;8.82;1.88;;;21.60;90.80;;;;;;5054041;28;20033;-59
2022/08/01 10:34:45;;;;;;;7.85;1.80;;;21.70;90.70;;;;;;5050177;28;20037;-59
2022/08/01 10:37:13;;;;;;;7.60;1.83;;;21.90;90.60;;;;;;5054472;28;20101;-59
2022/08/01 10:39:39;;;;;;;5.60;1.42;;;21.90;89.60;;;;;;5054605;28;20554;-59
2022/08/01 10:42:06;;;;;;;6.47;1.55;;;21.70;89.10;;;;;;5054569;28;20032;-59
2022/08/01 10:44:32;;;;;;;10.70;1.90;;;21.60;90.10;;;;;;5036448;28;20494;-57
2022/08/01 10:47:09;;;;;;;7.80;1.67;;;21.70;90.20;;;;;;5037000;28;20037;-59
2022/08/01 10:49:44;;;;;;;10.10;1.80;;;21.90;88.80;;;;;;5048761;28;20566;-59
2022/08/01 10:52:19;;;;;;;10.00;1.52;;;21.90;87.90;;;;;;5053719;28;20506;-59
2022/08/01 10:54:46;;;;;;;10.02;2.03;;;21.90;88.20;;;;;;5054321;28;20351;-59
2022/08/01 10:57:12;;;;;;;6.80;1.50;;;22.00;87.10;;;;;;5035223;28;20124;-59
2022/08/01 10:59:50;;;;;;;6.90;1.27;;;22.20;87.80;;;;;;5053534;28;20041;-59
2022/08/01 11:02:31;;;;;;;10.18;1.90;;;22.40;86.40;;;;;;5036509;28;20041;-58
2022/08/01 11:05:19;;;;;;;8.93;1.80;;;22.50;85.60;;;;;;5052133;28;20534;-57
2022/08/01 11:07:55;;;;;;;7.95;1.58;;;22.40;83.10;;;;;;5052059;28;20040;-59
2022/08/01 11:10:42;;;;;;;9.45;1.48;;;22.10;83.60;;;;;;5035825;28;20048;-59
2022/08/01 11:13:10;;;;;;;6.53;1.77;;;22.20;82.80;;;;;;5053137;28;20383;-58
2022/08/01 11:15:38;;;;;;;6.07;1.23;;;22.30;83.70;;;;;;5053804;28;20055;-59
2022/08/01 11:18:26;;;;;;;11.60;1.50;;;22.40;82.20;;;;;;5052982;28;20483;-59
2022/08/01 11:20:57;;;;;;;10.25;2.05;;;22.40;83.20;;;;;;5050878;28;20037;-58
2022/08/01 11:23:24;;;;;;;5.80;1.38;;;22.50;83.10;;;;;;5052445;28;20045;-58
2022/08/01 11:25:50;;;;;;;7.85;1.77;;;22.60;81.70;;;;;;5050892;28;20042;-59
2022/08/01 11:28:16;;;;;;;6.60;1.20;;;22.60;81.00;;;;;;5052278;28;20137;-59
2022/08/01 11:30:52;;;;;;;8.27;1.23;;;22.70;79.50;;;;;;5050306;28;20124;-59
2022/08/01 11:33:39;;;;;;;6.35;1.33;;;22.80;80.50;;;;;;5042059;28;20053;-59
2022/08/01 11:36:11;;;;;;;8.38;1.70;;;22.90;79.40;;;;;;5052453;28;20045;-59
2022/08/01 11:38:38;;;;;;;5.57;1.30;;;22.90;78.80;;;;;;5050580;28;20433;-58
2022/08/01 11:41:11;;;;;;;5.97;1.35;;;22.90;78.70;;;;;;5052328;28;20080;-59
2022/08/01 11:44:01;;;;;;;4.80;1.33;;;22.90;77.70;;;;;;5035566;28;20100;-59
2022/08/01 11:46:45;;;;;;;6.97;1.52;;;22.90;77.60;;;;;;5021889;28;20064;-59
2022/08/01 11:49:36;;;;;;;6.47;1.60;;;23.00;77.40;;;;;;5035763;28;20056;-58
2022/08/01 11:52:25;;;;;;;8.32;1.42;;;23.10;76.20;;;;;;5035311;28;20132;-59
2022/08/01 11:54:54;;;;;;;8.55;1.50;;;23.20;77.10;;;;;;5024366;28;20111;-59
2022/08/01 11:57:33;;;;;;;7.45;1.20;;;23.40;77.20;;;;;;5034230;28;20041;-59
2022/08/01 11:59:59;;;;;;;9.00;1.30;;;23.60;75.60;;;;;;5034943;28;20041;-59
2022/08/01 12:02:30;;;;;;;6.88;1.10;;;23.70;73.60;;;;;;5034264;28;20406;-59
2022/08/01 12:04:58;;;;;;;5.72;1.30;;;23.70;72.10;;;;;;5030441;28;20052;-59
2022/08/01 12:07:26;;;;;;;6.40;1.63;;;23.80;73.00;;;;;;5034145;28;20073;-58
2022/08/01 12:10:10;;;;;;;6.30;1.20;;;24.00;73.20;;;;;;5032901;28;20545;-59
2022/08/01 12:12:37;;;;;;;9.00;1.58;;;24.20;71.90;;;;;;5034972;28;20033;-59
2022/08/01 12:15:08;;;;;;;9.68;1.60;;;24.10;71.50;;;;;;5034197;28;20042;-59
2022/08/01 12:17:44;;;;;;;7.63;1.38;;;24.00;70.50;;;;;;5031954;28;20045;-59
2022/08/01 12:20:21;;;;;;;5.72;1.40;;;23.90;71.10;;;;;;5035675;28;20045;-59
2022/08/01 12:22:47;;;;;;;6.22;1.40;;;24.00;72.30;;;;;;5033596;28;20048;-60
2022/08/01 12:25:17;;;;;;;4.68;1.30;;;24.10;70.70;;;;;;5031714;28;20037;-58
2022/08/01 12:27:45;;;;;;;5.00;1.20;;;24.10;69.10;;;;;;5013791;28;20127;-59
2022/08/01 12:30:16;;;;;;;6.13;1.33;;;24.10;70.00;;;;;;5035131;28;20491;-59
2022/08/01 12:32:45;;;;;;;4.60;1.50;;;24.30;70.10;;;;;;5033762;28;20099;-59
2022/08/01 12:35:26;;;;;;;7.50;1.60;;;24.40;69.50;;;;;;5032582;28;20517;-59
2022/08/01 12:37:58;;;;;;;5.57;1.23;;;24.60;70.00;;;;;;5030660;28;20045;-59
2022/08/01 12:40:30;;;;;;;4.43;1.10;;;24.70;69.60;;;;;;5037102;28;20072;-59
2022/08/01 12:43:02;;;;;;;7.18;1.55;;;24.70;69.30;;;;;;5034464;28;20558;-59
2022/08/01 12:45:39;;;;;;;7.90;1.42;;;24.80;67.10;;;;;;5026114;28;20056;-60
2022/08/01 12:48:14;;;;;;;6.32;1.25;;;24.80;66.40;;;;;;5057774;28;20197;-59
2022/08/01 12:50:52;;;;;;;12.23;1.75;;;24.80;67.20;;;;;;5053512;28;20048;-60